sensor_id;sensor_type;location;lat;lon;timestamp;P1;P2;P0
77481;PMS5003;66582;43.004;-75.010;2023-03-01T00:01:34;14;14;
77481;PMS5003;66582;43.004;-75.010;2023-03-01T00:03:59;13;13;
77481;PMS5003;66582;43.004;-75.010;2023-03-01T00:06:25;18;18;
77481;PMS5003;66582;43.004;-75.010;2023-03-01T00:08:50;17;16;
77481;PMS5003;66582;43.004;-75.010;2023-03-01T00:11:16;12;12;
77481;PMS5003;66582;43.004;-75.010;2023-03-01T00:13:41;13;13;
77481;PMS5003;66582;43.004;-75.010;2023-03-01T00:16:07;15;15;
77481;PMS5003;66582;43.004;-75.010;2023-03-01T00:18:31;18;17;
77481;PMS5003;66582;43.004;-75.010;2023-03-01T00:20:56;15;15;
77481;PMS5003;66582;43.004;-75.010;2023-03-01T00:23:22;16;15;
77481;PMS5003;66582;43.004;-75.010;2023-03-01T00:25:47;12;12;
77481;PMS5003;66582;43.004;-75.010;2023-03-01T00:28:12;15;13;
77481;PMS5003;66582;43.004;-75.010;2023-03-01T00:30:38;14;12;
77481;PMS5003;66582;43.004;-75.010;2023-03-01T00:33:03;12;12;
77481;PMS5003;66582;43.004;-75.010;2023-03-01T00:35:28;13;13;
77481;PMS5003;66582;43.004;-75.010;2023-03-01T00:37:55;11;11;
77481;PMS5003;66582;43.004;-75.010;2023-03-01T00:40:19;15;15;
77481;PMS5003;66582;43.004;-75.010;2023-03-01T00:42:44;13;12;
77481;PMS5003;66582;43.004;-75.010;2023-03-01T00:45:09;14;14;
77481;PMS5003;66582;43.004;-75.010;2023-03-01T00:47:34;14;11;
77481;PMS5003;66582;43.004;-75.010;2023-03-01T00:50:00;11;11;
77481;PMS5003;66582;43.004;-75.010;2023-03-01T00:52:25;14;14;
77481;PMS5003;66582;43.004;-75.010;2023-03-01T00:54:52;11;11;
77481;PMS5003;66582;43.004;-75.010;2023-03-01T00:57:16;11;11;
77481;PMS5003;66582;43.004;-75.010;2023-03-01T00:59:41;13;11;
77481;PMS5003;66582;43.004;-75.010;2023-03-01T01:02:06;11;10;
77481;PMS5003;66582;43.004;-75.010;2023-03-01T01:04:31;11;11;
77481;PMS5003;66582;43.004;-75.010;2023-03-01T01:06:57;10;10;
77481;PMS5003;66582;43.004;-75.010;2023-03-01T01:09:22;11;10;
77481;PMS5003;66582;43.004;-75.010;2023-03-01T01:11:47;8;6;
77481;PMS5003;66582;43.004;-75.010;2023-03-01T01:14:12;9;9;
77481;PMS5003;66582;43.004;-75.010;2023-03-01T01:16:37;9;8;
77481;PMS5003;66582;43.004;-75.010;2023-03-01T01:19:03;9;9;
77481;PMS5003;66582;43.004;-75.010;2023-03-01T01:21:28;9;9;
77481;PMS5003;66582;43.004;-75.010;2023-03-01T01:23:53;7;7;
77481;PMS5003;66582;43.004;-75.010;2023-03-01T01:26:19;10;9;
77481;PMS5003;66582;43.004;-75.010;2023-03-01T01:28:44;10;10;
77481;PMS5003;66582;43.004;-75.010;2023-03-01T01:31:09;13;10;
77481;PMS5003;66582;43.004;-75.010;2023-03-01T01:33:35;6;6;
77481;PMS5003;66582;43.004;-75.010;2023-03-01T01:36:00;9;7;
77481;PMS5003;66582;43.004;-75.010;2023-03-01T01:38:25;7;7;
77481;PMS5003;66582;43.004;-75.010;2023-03-01T01:40:50;9;9;
77481;PMS5003;66582;43.004;-75.010;2023-03-01T01:43:17;7;6;
77481;PMS5003;66582;43.004;-75.010;2023-03-01T01:45:40;6;6;
77481;PMS5003;66582;43.004;-75.010;2023-03-01T01:48:06;8;8;
77481;PMS5003;66582;43.004;-75.010;2023-03-01T01:50:32;6;6;
77481;PMS5003;66582;43.004;-75.010;2023-03-01T01:52:56;8;6;
77481;PMS5003;66582;43.004;-75.010;2023-03-01T01:55:22;6;6;
77481;PMS5003;66582;43.004;-75.010;2023-03-01T01:57:47;9;9;
77481;PMS5003;66582;43.004;-75.010;2023-03-01T02:00:13;8;6;
77481;PMS5003;66582;43.004;-75.010;2023-03-01T02:02:36;8;8;
77481;PMS5003;66582;43.004;-75.010;2023-03-01T02:05:03;8;6;
77481;PMS5003;66582;43.004;-75.010;2023-03-01T02:07:27;7;7;
77481;PMS5003;66582;43.004;-75.010;2023-03-01T02:09:52;9;7;
77481;PMS5003;66582;43.004;-75.010;2023-03-01T02:12:18;8;8;
77481;PMS5003;66582;43.004;-75.010;2023-03-01T02:14:42;8;8;
77481;PMS5003;66582;43.004;-75.010;2023-03-01T02:17:07;11;10;
77481;PMS5003;66582;43.004;-75.010;2023-03-01T02:19:44;8;8;
77481;PMS5003;66582;43.004;-75.010;2023-03-01T02:22:00;6;6;
77481;PMS5003;66582;43.004;-75.010;2023-03-01T02:24:24;9;9;
77481;PMS5003;66582;43.004;-75.010;2023-03-01T02:26:49;9;6;
77481;PMS5003;66582;43.004;-75.010;2023-03-01T02:29:13;8;6;
77481;PMS5003;66582;43.004;-75.010;2023-03-01T02:31:38;9;8;
77481;PMS5003;66582;43.004;-75.010;2023-03-01T02:34:04;10;9;
77481;PMS5003;66582;43.004;-75.010;2023-03-01T02:36:31;7;7;
77481;PMS5003;66582;43.004;-75.010;2023-03-01T02:38:57;9;8;
77481;PMS5003;66582;43.004;-75.010;2023-03-01T02:41:19;8;6;
77481;PMS5003;66582;43.004;-75.010;2023-03-01T02:43:44;8;8;
77481;PMS5003;66582;43.004;-75.010;2023-03-01T02:46:14;9;9;
77481;PMS5003;66582;43.004;-75.010;2023-03-01T02:48:41;10;8;
77481;PMS5003;66582;43.004;-75.010;2023-03-01T02:51:03;10;9;
77481;PMS5003;66582;43.004;-75.010;2023-03-01T02:53:27;9;9;
77481;PMS5003;66582;43.004;-75.010;2023-03-01T02:55:51;11;8;
77481;PMS5003;66582;43.004;-75.010;2023-03-01T02:58:16;11;11;
77481;PMS5003;66582;43.004;-75.010;2023-03-01T03:00:42;9;9;
77481;PMS5003;66582;43.004;-75.010;2023-03-01T03:03:06;9;9;
77481;PMS5003;66582;43.004;-75.010;2023-03-01T03:05:32;8;8;
77481;PMS5003;66582;43.004;-75.010;2023-03-01T03:07:57;9;8;
77481;PMS5003;66582;43.004;-75.010;2023-03-01T03:10:23;9;9;
77481;PMS5003;66582;43.004;-75.010;2023-03-01T03:12:49;10;9;
77481;PMS5003;66582;43.004;-75.010;2023-03-01T03:15:12;8;8;
77481;PMS5003;66582;43.004;-75.010;2023-03-01T03:17:38;10;10;
77481;PMS5003;66582;43.004;-75.010;2023-03-01T03:20:06;6;6;
77481;PMS5003;66582;43.004;-75.010;2023-03-01T03:22:28;6;6;
77481;PMS5003;66582;43.004;-75.010;2023-03-01T03:24:53;6;6;
77481;PMS5003;66582;43.004;-75.010;2023-03-01T03:27:18;6;6;
77481;PMS5003;66582;43.004;-75.010;2023-03-01T03:29:43;9;9;
77481;PMS5003;66582;43.004;-75.010;2023-03-01T03:32:08;9;8;
77481;PMS5003;66582;43.004;-75.010;2023-03-01T03:34:34;5;5;
77481;PMS5003;66582;43.004;-75.010;2023-03-01T03:36:59;10;8;
77481;PMS5003;66582;43.004;-75.010;2023-03-01T03:39:24;6;6;
77481;PMS5003;66582;43.004;-75.010;2023-03-01T03:41:49;11;10;
77481;PMS5003;66582;43.004;-75.010;2023-03-01T03:44:15;8;8;
77481;PMS5003;66582;43.004;-75.010;2023-03-01T03:46:43;4;4;
77481;PMS5003;66582;43.004;-75.010;2023-03-01T03:49:05;8;6;
77481;PMS5003;66582;43.004;-75.010;2023-03-01T03:51:30;5;4;
77481;PMS5003;66582;43.004;-75.010;2023-03-01T03:53:55;9;8;
77481;PMS5003;66582;43.004;-75.010;2023-03-01T03:56:20;6;5;
77481;PMS5003;66582;43.004;-75.010;2023-03-01T03:58:46;6;6;
77481;PMS5003;66582;43.004;-75.010;2023-03-01T04:01:11;6;6;
77481;PMS5003;66582;43.004;-75.010;2023-03-01T04:03:35;5;5;
77481;PMS5003;66582;43.004;-75.010;2023-03-01T04:06:01;8;8;
77481;PMS5003;66582;43.004;-75.010;2023-03-01T04:08:26;6;5;
77481;PMS5003;66582;43.004;-75.010;2023-03-01T04:10:52;8;8;
77481;PMS5003;66582;43.004;-75.010;2023-03-01T04:13:17;10;9;
77481;PMS5003;66582;43.004;-75.010;2023-03-01T04:15:41;6;5;
77481;PMS5003;66582;43.004;-75.010;2023-03-01T04:18:07;6;6;
77481;PMS5003;66582;43.004;-75.010;2023-03-01T04:20:32;8;6;
77481;PMS5003;66582;43.004;-75.010;2023-03-01T04:22:58;9;8;
77481;PMS5003;66582;43.004;-75.010;2023-03-01T04:25:23;8;6;
77481;PMS5003;66582;43.004;-75.010;2023-03-01T04:27:48;8;7;
77481;PMS5003;66582;43.004;-75.010;2023-03-01T04:30:13;6;6;
77481;PMS5003;66582;43.004;-75.010;2023-03-01T04:32:38;9;9;
77481;PMS5003;66582;43.004;-75.010;2023-03-01T04:35:03;10;9;
77481;PMS5003;66582;43.004;-75.010;2023-03-01T04:37:28;9;9;
77481;PMS5003;66582;43.004;-75.010;2023-03-01T04:39:53;9;9;
77481;PMS5003;66582;43.004;-75.010;2023-03-01T04:42:19;11;10;
77481;PMS5003;66582;43.004;-75.010;2023-03-01T04:44:44;8;8;
77481;PMS5003;66582;43.004;-75.010;2023-03-01T04:47:10;10;10;
77481;PMS5003;66582;43.004;-75.010;2023-03-01T04:49:35;9;8;
77481;PMS5003;66582;43.004;-75.010;2023-03-01T04:52:00;6;6;
77481;PMS5003;66582;43.004;-75.010;2023-03-01T04:54:25;6;6;
77481;PMS5003;66582;43.004;-75.010;2023-03-01T04:56:51;8;6;
77481;PMS5003;66582;43.004;-75.010;2023-03-01T04:59:15;8;8;
77481;PMS5003;66582;43.004;-75.010;2023-03-01T05:01:40;10;9;
77481;PMS5003;66582;43.004;-75.010;2023-03-01T05:04:05;6;6;
77481;PMS5003;66582;43.004;-75.010;2023-03-01T05:06:31;8;8;
77481;PMS5003;66582;43.004;-75.010;2023-03-01T05:08:56;6;6;
77481;PMS5003;66582;43.004;-75.010;2023-03-01T05:11:22;8;8;
77481;PMS5003;66582;43.004;-75.010;2023-03-01T05:13:47;6;6;
77481;PMS5003;66582;43.004;-75.010;2023-03-01T05:16:12;5;5;
77481;PMS5003;66582;43.004;-75.010;2023-03-01T05:18:37;6;6;
77481;PMS5003;66582;43.004;-75.010;2023-03-01T05:21:04;5;5;
77481;PMS5003;66582;43.004;-75.010;2023-03-01T05:23:28;5;5;
77481;PMS5003;66582;43.004;-75.010;2023-03-01T05:25:52;4;4;
77481;PMS5003;66582;43.004;-75.010;2023-03-01T05:28:18;8;8;
77481;PMS5003;66582;43.004;-75.010;2023-03-01T05:30:43;5;4;
77481;PMS5003;66582;43.004;-75.010;2023-03-01T05:33:08;6;5;
77481;PMS5003;66582;43.004;-75.010;2023-03-01T05:35:33;5;4;
77481;PMS5003;66582;43.004;-75.010;2023-03-01T05:37:58;4;4;
77481;PMS5003;66582;43.004;-75.010;2023-03-01T05:40:23;4;4;
77481;PMS5003;66582;43.004;-75.010;2023-03-01T05:42:49;5;5;
77481;PMS5003;66582;43.004;-75.010;2023-03-01T05:45:14;5;4;
77481;PMS5003;66582;43.004;-75.010;2023-03-01T05:47:39;7;7;
77481;PMS5003;66582;43.004;-75.010;2023-03-01T05:50:05;5;5;
77481;PMS5003;66582;43.004;-75.010;2023-03-01T05:52:29;5;5;
77481;PMS5003;66582;43.004;-75.010;2023-03-01T05:54:55;3;3;
77481;PMS5003;66582;43.004;-75.010;2023-03-01T05:57:20;4;4;
77481;PMS5003;66582;43.004;-75.010;2023-03-01T05:59:45;3;3;
77481;PMS5003;66582;43.004;-75.010;2023-03-01T06:02:10;4;4;
77481;PMS5003;66582;43.004;-75.010;2023-03-01T06:04:35;4;3;
77481;PMS5003;66582;43.004;-75.010;2023-03-01T06:07:01;4;4;
77481;PMS5003;66582;43.004;-75.010;2023-03-01T06:09:26;5;5;
77481;PMS5003;66582;43.004;-75.010;2023-03-01T06:11:51;4;4;
77481;PMS5003;66582;43.004;-75.010;2023-03-01T06:14:16;5;4;
77481;PMS5003;66582;43.004;-75.010;2023-03-01T06:16:41;7;7;
77481;PMS5003;66582;43.004;-75.010;2023-03-01T06:19:07;5;4;
77481;PMS5003;66582;43.004;-75.010;2023-03-01T06:21:32;3;3;
77481;PMS5003;66582;43.004;-75.010;2023-03-01T06:23:57;3;3;
77481;PMS5003;66582;43.004;-75.010;2023-03-01T06:26:22;7;7;
77481;PMS5003;66582;43.004;-75.010;2023-03-01T06:28:47;7;7;
77481;PMS5003;66582;43.004;-75.010;2023-03-01T06:31:12;5;4;
77481;PMS5003;66582;43.004;-75.010;2023-03-01T06:33:38;7;5;
77481;PMS5003;66582;43.004;-75.010;2023-03-01T06:36:03;9;7;
77481;PMS5003;66582;43.004;-75.010;2023-03-01T06:38:28;5;5;
77481;PMS5003;66582;43.004;-75.010;2023-03-01T06:40:53;8;5;
77481;PMS5003;66582;43.004;-75.010;2023-03-01T06:43:18;5;5;
77481;PMS5003;66582;43.004;-75.010;2023-03-01T06:45:43;4;3;
77481;PMS5003;66582;43.004;-75.010;2023-03-01T06:48:09;4;4;
77481;PMS5003;66582;43.004;-75.010;2023-03-01T06:50:34;7;5;
77481;PMS5003;66582;43.004;-75.010;2023-03-01T06:52:59;8;7;
77481;PMS5003;66582;43.004;-75.010;2023-03-01T06:55:24;5;5;
77481;PMS5003;66582;43.004;-75.010;2023-03-01T06:57:53;5;5;
77481;PMS5003;66582;43.004;-75.010;2023-03-01T07:00:15;4;4;
77481;PMS5003;66582;43.004;-75.010;2023-03-01T07:02:40;8;8;
77481;PMS5003;66582;43.004;-75.010;2023-03-01T07:05:05;8;6;
77481;PMS5003;66582;43.004;-75.010;2023-03-01T07:07:30;6;6;
77481;PMS5003;66582;43.004;-75.010;2023-03-01T07:09:55;7;5;
77481;PMS5003;66582;43.004;-75.010;2023-03-01T07:12:20;7;5;
77481;PMS5003;66582;43.004;-75.010;2023-03-01T07:14:46;7;5;
77481;PMS5003;66582;43.004;-75.010;2023-03-01T07:17:11;5;4;
77481;PMS5003;66582;43.004;-75.010;2023-03-01T07:19:36;8;7;
77481;PMS5003;66582;43.004;-75.010;2023-03-01T07:22:02;5;5;
77481;PMS5003;66582;43.004;-75.010;2023-03-01T07:24:27;5;5;
77481;PMS5003;66582;43.004;-75.010;2023-03-01T07:26:51;7;7;
77481;PMS5003;66582;43.004;-75.010;2023-03-01T07:29:17;5;5;
77481;PMS5003;66582;43.004;-75.010;2023-03-01T07:31:42;6;6;
77481;PMS5003;66582;43.004;-75.010;2023-03-01T07:34:07;5;5;
77481;PMS5003;66582;43.004;-75.010;2023-03-01T07:36:32;5;5;
77481;PMS5003;66582;43.004;-75.010;2023-03-01T07:38:57;8;5;
77481;PMS5003;66582;43.004;-75.010;2023-03-01T07:41:23;6;6;
77481;PMS5003;66582;43.004;-75.010;2023-03-01T07:43:48;7;7;
77481;PMS5003;66582;43.004;-75.010;2023-03-01T07:46:13;4;4;
77481;PMS5003;66582;43.004;-75.010;2023-03-01T07:48:39;8;8;
77481;PMS5003;66582;43.004;-75.010;2023-03-01T07:51:04;4;4;
77481;PMS5003;66582;43.004;-75.010;2023-03-01T07:53:29;7;6;
77481;PMS5003;66582;43.004;-75.010;2023-03-01T07:56:02;6;6;
77481;PMS5003;66582;43.004;-75.010;2023-03-01T07:58:20;7;6;
77481;PMS5003;66582;43.004;-75.010;2023-03-01T08:00:45;6;6;
77481;PMS5003;66582;43.004;-75.010;2023-03-01T08:03:10;9;9;
77481;PMS5003;66582;43.004;-75.010;2023-03-01T08:05:35;6;6;
77481;PMS5003;66582;43.004;-75.010;2023-03-01T08:08:01;6;6;
77481;PMS5003;66582;43.004;-75.010;2023-03-01T08:10:26;6;6;
77481;PMS5003;66582;43.004;-75.010;2023-03-01T08:12:51;6;4;
77481;PMS5003;66582;43.004;-75.010;2023-03-01T08:15:16;8;7;
77481;PMS5003;66582;43.004;-75.010;2023-03-01T08:17:41;8;7;
77481;PMS5003;66582;43.004;-75.010;2023-03-01T08:20:07;7;7;
77481;PMS5003;66582;43.004;-75.010;2023-03-01T08:22:32;7;7;
77481;PMS5003;66582;43.004;-75.010;2023-03-01T08:24:57;7;6;
77481;PMS5003;66582;43.004;-75.010;2023-03-01T08:27:22;8;7;
77481;PMS5003;66582;43.004;-75.010;2023-03-01T08:29:47;6;6;
77481;PMS5003;66582;43.004;-75.010;2023-03-01T08:32:12;7;7;
77481;PMS5003;66582;43.004;-75.010;2023-03-01T08:34:38;7;6;
77481;PMS5003;66582;43.004;-75.010;2023-03-01T08:37:03;7;7;
77481;PMS5003;66582;43.004;-75.010;2023-03-01T08:39:28;7;7;
77481;PMS5003;66582;43.004;-75.010;2023-03-01T08:41:53;6;6;
77481;PMS5003;66582;43.004;-75.010;2023-03-01T08:44:18;6;6;
77481;PMS5003;66582;43.004;-75.010;2023-03-01T08:46:44;6;6;
77481;PMS5003;66582;43.004;-75.010;2023-03-01T08:49:11;9;8;
77481;PMS5003;66582;43.004;-75.010;2023-03-01T08:51:34;8;7;
77481;PMS5003;66582;43.004;-75.010;2023-03-01T08:54:00;8;6;
77481;PMS5003;66582;43.004;-75.010;2023-03-01T08:56:25;7;7;
77481;PMS5003;66582;43.004;-75.010;2023-03-01T08:58:50;9;8;
77481;PMS5003;66582;43.004;-75.010;2023-03-01T09:01:17;8;8;
77481;PMS5003;66582;43.004;-75.010;2023-03-01T09:03:40;8;8;
77481;PMS5003;66582;43.004;-75.010;2023-03-01T09:06:07;9;9;
77481;PMS5003;66582;43.004;-75.010;2023-03-01T09:08:33;4;4;
77481;PMS5003;66582;43.004;-75.010;2023-03-01T09:10:56;6;6;
77481;PMS5003;66582;43.004;-75.010;2023-03-01T09:13:21;7;7;
77481;PMS5003;66582;43.004;-75.010;2023-03-01T09:15:46;8;6;
77481;PMS5003;66582;43.004;-75.010;2023-03-01T09:18:12;8;8;
77481;PMS5003;66582;43.004;-75.010;2023-03-01T09:20:37;6;6;
77481;PMS5003;66582;43.004;-75.010;2023-03-01T09:23:02;6;6;
77481;PMS5003;66582;43.004;-75.010;2023-03-01T09:25:27;6;6;
77481;PMS5003;66582;43.004;-75.010;2023-03-01T09:27:52;6;6;
77481;PMS5003;66582;43.004;-75.010;2023-03-01T09:30:18;8;7;
77481;PMS5003;66582;43.004;-75.010;2023-03-01T09:32:43;3;3;
77481;PMS5003;66582;43.004;-75.010;2023-03-01T09:35:08;6;6;
77481;PMS5003;66582;43.004;-75.010;2023-03-01T09:37:33;7;7;
77481;PMS5003;66582;43.004;-75.010;2023-03-01T09:39:58;6;6;
77481;PMS5003;66582;43.004;-75.010;2023-03-01T09:42:23;6;6;
77481;PMS5003;66582;43.004;-75.010;2023-03-01T09:44:49;4;4;
77481;PMS5003;66582;43.004;-75.010;2023-03-01T09:47:16;7;6;
77481;PMS5003;66582;43.004;-75.010;2023-03-01T09:49:39;9;8;
77481;PMS5003;66582;43.004;-75.010;2023-03-01T09:52:06;7;7;
77481;PMS5003;66582;43.004;-75.010;2023-03-01T09:54:29;9;8;
77481;PMS5003;66582;43.004;-75.010;2023-03-01T09:57:04;6;6;
77481;PMS5003;66582;43.004;-75.010;2023-03-01T09:59:22;9;9;
77481;PMS5003;66582;43.004;-75.010;2023-03-01T10:01:46;7;7;
77481;PMS5003;66582;43.004;-75.010;2023-03-01T10:04:16;6;6;
77481;PMS5003;66582;43.004;-75.010;2023-03-01T10:06:36;7;6;
77481;PMS5003;66582;43.004;-75.010;2023-03-01T10:09:02;7;7;
77481;PMS5003;66582;43.004;-75.010;2023-03-01T10:11:27;11;9;
77481;PMS5003;66582;43.004;-75.010;2023-03-01T10:13:55;9;7;
77481;PMS5003;66582;43.004;-75.010;2023-03-01T10:16:17;9;8;
77481;PMS5003;66582;43.004;-75.010;2023-03-01T10:18:52;11;9;
77481;PMS5003;66582;43.004;-75.010;2023-03-01T10:21:12;13;12;
77481;PMS5003;66582;43.004;-75.010;2023-03-01T10:23:32;11;11;
77481;PMS5003;66582;43.004;-75.010;2023-03-01T10:26:08;9;8;
77481;PMS5003;66582;43.004;-75.010;2023-03-01T10:28:25;9;9;
77481;PMS5003;66582;43.004;-75.010;2023-03-01T10:30:48;13;12;
77481;PMS5003;66582;43.004;-75.010;2023-03-01T10:33:16;13;11;
77481;PMS5003;66582;43.004;-75.010;2023-03-01T10:35:40;13;12;
77481;PMS5003;66582;43.004;-75.010;2023-03-01T10:38:05;11;10;
77481;PMS5003;66582;43.004;-75.010;2023-03-01T10:40:30;10;10;
77481;PMS5003;66582;43.004;-75.010;2023-03-01T10:42:57;7;7;
77481;PMS5003;66582;43.004;-75.010;2023-03-01T10:45:29;10;10;
77481;PMS5003;66582;43.004;-75.010;2023-03-01T10:47:46;12;12;
77481;PMS5003;66582;43.004;-75.010;2023-03-01T10:52:37;14;12;
77481;PMS5003;66582;43.004;-75.010;2023-03-01T10:55:04;15;13;
77481;PMS5003;66582;43.004;-75.010;2023-03-01T10:57:30;12;12;
77481;PMS5003;66582;43.004;-75.010;2023-03-01T11:02:20;11;11;
77481;PMS5003;66582;43.004;-75.010;2023-03-01T11:07:09;11;11;
77481;PMS5003;66582;43.004;-75.010;2023-03-01T11:09:34;11;11;
77481;PMS5003;66582;43.004;-75.010;2023-03-01T11:12:00;11;11;
77481;PMS5003;66582;43.004;-75.010;2023-03-01T11:14:26;12;12;
77481;PMS5003;66582;43.004;-75.010;2023-03-01T11:19:17;16;14;
77481;PMS5003;66582;43.004;-75.010;2023-03-01T11:21:41;12;11;
77481;PMS5003;66582;43.004;-75.010;2023-03-01T11:24:10;12;12;
77481;PMS5003;66582;43.004;-75.010;2023-03-01T11:26:33;11;11;
77481;PMS5003;66582;43.004;-75.010;2023-03-01T11:28:58;16;14;
77481;PMS5003;66582;43.004;-75.010;2023-03-01T11:31:22;12;11;
77481;PMS5003;66582;43.004;-75.010;2023-03-01T11:33:48;12;11;
77481;PMS5003;66582;43.004;-75.010;2023-03-01T11:36:15;18;15;
77481;PMS5003;66582;43.004;-75.010;2023-03-01T11:38:38;14;11;
77481;PMS5003;66582;43.004;-75.010;2023-03-01T11:41:06;15;12;
77481;PMS5003;66582;43.004;-75.010;2023-03-01T11:43:33;19;15;
77481;PMS5003;66582;43.004;-75.010;2023-03-01T11:46:04;11;11;
77481;PMS5003;66582;43.004;-75.010;2023-03-01T11:48:26;19;14;
77481;PMS5003;66582;43.004;-75.010;2023-03-01T11:50:46;15;15;
77481;PMS5003;66582;43.004;-75.010;2023-03-01T11:53:19;14;12;
77481;PMS5003;66582;43.004;-75.010;2023-03-01T11:55:40;14;14;
77481;PMS5003;66582;43.004;-75.010;2023-03-01T11:58:11;11;11;
77481;PMS5003;66582;43.004;-75.010;2023-03-01T12:02:56;15;14;
77481;PMS5003;66582;43.004;-75.010;2023-03-01T12:05:23;13;11;
77481;PMS5003;66582;43.004;-75.010;2023-03-01T12:07:44;15;14;
77481;PMS5003;66582;43.004;-75.010;2023-03-01T12:12:37;11;11;
77481;PMS5003;66582;43.004;-75.010;2023-03-01T12:19:55;18;16;
77481;PMS5003;66582;43.004;-75.010;2023-03-01T12:22:20;18;15;
77481;PMS5003;66582;43.004;-75.010;2023-03-01T12:24:47;15;14;
77481;PMS5003;66582;43.004;-75.010;2023-03-01T12:27:10;18;14;
77481;PMS5003;66582;43.004;-75.010;2023-03-01T12:29:31;16;15;
77481;PMS5003;66582;43.004;-75.010;2023-03-01T12:32:05;14;12;
77481;PMS5003;66582;43.004;-75.010;2023-03-01T12:34:25;14;12;
77481;PMS5003;66582;43.004;-75.010;2023-03-01T12:36:50;15;13;
77481;PMS5003;66582;43.004;-75.010;2023-03-01T12:39:16;17;15;
77481;PMS5003;66582;43.004;-75.010;2023-03-01T12:41:42;16;16;
77481;PMS5003;66582;43.004;-75.010;2023-03-01T12:44:07;19;18;
77481;PMS5003;66582;43.004;-75.010;2023-03-01T12:46:32;17;16;
77481;PMS5003;66582;43.004;-75.010;2023-03-01T12:48:55;14;13;
77481;PMS5003;66582;43.004;-75.010;2023-03-01T12:51:19;16;16;
77481;PMS5003;66582;43.004;-75.010;2023-03-01T12:53:45;21;18;
77481;PMS5003;66582;43.004;-75.010;2023-03-01T12:56:10;20;15;
77481;PMS5003;66582;43.004;-75.010;2023-03-01T12:58:36;17;16;
77481;PMS5003;66582;43.004;-75.010;2023-03-01T13:01:03;18;17;
77481;PMS5003;66582;43.004;-75.010;2023-03-01T13:03:28;16;16;
77481;PMS5003;66582;43.004;-75.010;2023-03-01T13:05:56;17;16;
77481;PMS5003;66582;43.004;-75.010;2023-03-01T13:08:19;15;15;
77481;PMS5003;66582;43.004;-75.010;2023-03-01T13:10:43;19;17;
77481;PMS5003;66582;43.004;-75.010;2023-03-01T13:13:12;16;15;
77481;PMS5003;66582;43.004;-75.010;2023-03-01T13:15:34;16;15;
77481;PMS5003;66582;43.004;-75.010;2023-03-01T13:17:59;18;14;
77481;PMS5003;66582;43.004;-75.010;2023-03-01T13:20:26;14;13;
77481;PMS5003;66582;43.004;-75.010;2023-03-01T13:25:16;20;17;
77481;PMS5003;66582;43.004;-75.010;2023-03-01T13:27:40;21;21;
77481;PMS5003;66582;43.004;-75.010;2023-03-01T13:30:12;20;20;
77481;PMS5003;66582;43.004;-75.010;2023-03-01T13:32:31;20;18;
77481;PMS5003;66582;43.004;-75.010;2023-03-01T13:34:57;18;15;
77481;PMS5003;66582;43.004;-75.010;2023-03-01T13:37:23;15;15;
77481;PMS5003;66582;43.004;-75.010;2023-03-01T13:39:47;17;17;
77481;PMS5003;66582;43.004;-75.010;2023-03-01T13:44:37;14;14;
77481;PMS5003;66582;43.004;-75.010;2023-03-01T13:47:05;17;15;
77481;PMS5003;66582;43.004;-75.010;2023-03-01T13:49:28;19;17;
77481;PMS5003;66582;43.004;-75.010;2023-03-01T13:51:53;16;14;
77481;PMS5003;66582;43.004;-75.010;2023-03-01T13:54:22;14;14;
77481;PMS5003;66582;43.004;-75.010;2023-03-01T13:56:44;16;16;
77481;PMS5003;66582;43.004;-75.010;2023-03-01T13:59:13;17;17;
77481;PMS5003;66582;43.004;-75.010;2023-03-01T14:01:35;21;17;
77481;PMS5003;66582;43.004;-75.010;2023-03-01T14:04:01;17;16;
77481;PMS5003;66582;43.004;-75.010;2023-03-01T14:06:28;18;16;
77481;PMS5003;66582;43.004;-75.010;2023-03-01T14:09:00;17;17;
77481;PMS5003;66582;43.004;-75.010;2023-03-01T14:11:24;16;16;
77481;PMS5003;66582;43.004;-75.010;2023-03-01T14:13:48;18;18;
77481;PMS5003;66582;43.004;-75.010;2023-03-01T14:16:12;18;17;
77481;PMS5003;66582;43.004;-75.010;2023-03-01T14:18:34;18;18;
77481;PMS5003;66582;43.004;-75.010;2023-03-01T14:20:58;14;14;
77481;PMS5003;66582;43.004;-75.010;2023-03-01T14:23:24;15;15;
77481;PMS5003;66582;43.004;-75.010;2023-03-01T14:25:50;18;18;
77481;PMS5003;66582;43.004;-75.010;2023-03-01T14:28:15;20;19;
77481;PMS5003;66582;43.004;-75.010;2023-03-01T14:30:41;15;15;
77481;PMS5003;66582;43.004;-75.010;2023-03-01T14:33:06;16;16;
77481;PMS5003;66582;43.004;-75.010;2023-03-01T14:35:31;16;16;
77481;PMS5003;66582;43.004;-75.010;2023-03-01T14:37:56;18;18;
77481;PMS5003;66582;43.004;-75.010;2023-03-01T14:40:23;17;17;
77481;PMS5003;66582;43.004;-75.010;2023-03-01T14:42:46;18;17;
77481;PMS5003;66582;43.004;-75.010;2023-03-01T14:45:11;19;18;
77481;PMS5003;66582;43.004;-75.010;2023-03-01T14:47:36;19;18;
77481;PMS5003;66582;43.004;-75.010;2023-03-01T14:50:02;15;15;
77481;PMS5003;66582;43.004;-75.010;2023-03-01T14:52:30;20;16;
77481;PMS5003;66582;43.004;-75.010;2023-03-01T14:54:52;16;16;
77481;PMS5003;66582;43.004;-75.010;2023-03-01T14:57:19;16;16;
77481;PMS5003;66582;43.004;-75.010;2023-03-01T14:59:43;14;14;
77481;PMS5003;66582;43.004;-75.010;2023-03-01T15:02:10;17;16;
77481;PMS5003;66582;43.004;-75.010;2023-03-01T15:04:34;15;14;
77481;PMS5003;66582;43.004;-75.010;2023-03-01T15:06:59;14;13;
77481;PMS5003;66582;43.004;-75.010;2023-03-01T15:09:23;14;14;
77481;PMS5003;66582;43.004;-75.010;2023-03-01T15:11:49;17;16;
77481;PMS5003;66582;43.004;-75.010;2023-03-01T15:16:39;13;12;
77481;PMS5003;66582;43.004;-75.010;2023-03-01T15:19:05;11;11;
77481;PMS5003;66582;43.004;-75.010;2023-03-01T15:21:31;13;13;
77481;PMS5003;66582;43.004;-75.010;2023-03-01T15:23:56;16;14;
77481;PMS5003;66582;43.004;-75.010;2023-03-01T15:26:23;17;15;
77481;PMS5003;66582;43.004;-75.010;2023-03-01T15:28:48;13;13;
77481;PMS5003;66582;43.004;-75.010;2023-03-01T15:31:14;15;15;
77481;PMS5003;66582;43.004;-75.010;2023-03-01T15:33:36;11;11;
77481;PMS5003;66582;43.004;-75.010;2023-03-01T15:36:02;14;14;
77481;PMS5003;66582;43.004;-75.010;2023-03-01T15:38:28;13;13;
77481;PMS5003;66582;43.004;-75.010;2023-03-01T15:40:52;14;13;
77481;PMS5003;66582;43.004;-75.010;2023-03-01T15:45:43;14;12;
77481;PMS5003;66582;43.004;-75.010;2023-03-01T15:50:34;15;14;
77481;PMS5003;66582;43.004;-75.010;2023-03-01T15:53:00;9;9;
77481;PMS5003;66582;43.004;-75.010;2023-03-01T15:55:25;10;8;
77481;PMS5003;66582;43.004;-75.010;2023-03-01T15:57:50;10;10;
77481;PMS5003;66582;43.004;-75.010;2023-03-01T16:00:16;13;13;
77481;PMS5003;66582;43.004;-75.010;2023-03-01T16:02:41;13;12;
77481;PMS5003;66582;43.004;-75.010;2023-03-01T16:05:09;13;12;
77481;PMS5003;66582;43.004;-75.010;2023-03-01T16:07:31;8;8;
77481;PMS5003;66582;43.004;-75.010;2023-03-01T16:09:56;7;7;
77481;PMS5003;66582;43.004;-75.010;2023-03-01T16:12:21;12;12;
77481;PMS5003;66582;43.004;-75.010;2023-03-01T16:14:47;8;8;
77481;PMS5003;66582;43.004;-75.010;2023-03-01T16:17:11;10;10;
77481;PMS5003;66582;43.004;-75.010;2023-03-01T16:19:37;10;9;
77481;PMS5003;66582;43.004;-75.010;2023-03-01T16:22:02;9;9;